sensor_id;sensor_type;location;lat;lon;timestamp;pressure;altitude;pressure_sealevel;temperature;humidity
34034;BME280;63481;52.588;22.472;2023-05-25T00:00:05;100407.71;;;13.14;81.21
34034;BME280;63481;52.588;22.472;2023-05-25T00:00:47;100403.39;;;13.13;81.17
34034;BME280;63481;52.588;22.472;2023-05-25T00:01:34;100405.39;;;13.15;80.84
34034;BME280;63481;52.588;22.472;2023-05-25T00:02:06;100406.89;;;13.15;81.14
34034;BME280;63481;52.588;22.472;2023-05-25T00:02:38;100407.65;;;13.16;81.21
34034;BME280;63481;52.588;22.472;2023-05-25T00:03:10;100407.20;;;13.16;81.20
34034;BME280;63481;52.588;22.472;2023-05-25T00:03:42;100406.62;;;13.17;81.28
34034;BME280;63481;52.588;22.472;2023-05-25T00:04:16;100407.95;;;13.15;81.91
34034;BME280;63481;52.588;22.472;2023-05-25T00:04:50;100411.40;;;13.11;82.26
34034;BME280;63481;52.588;22.472;2023-05-25T00:05:22;100411.48;;;13.11;82.43
34034;BME280;63481;52.588;22.472;2023-05-25T00:06:01;100409.29;;;13.11;82.56
34034;BME280;63481;52.588;22.472;2023-05-25T00:06:33;100410.34;;;13.09;82.54
34034;BME280;63481;52.588;22.472;2023-05-25T00:07:07;100408.58;;;13.06;82.47
34034;BME280;63481;52.588;22.472;2023-05-25T00:07:39;100409.02;;;13.05;82.79
34034;BME280;63481;52.588;22.472;2023-05-25T00:08:11;100406.92;;;13.04;82.38
34034;BME280;63481;52.588;22.472;2023-05-25T00:08:43;100411.04;;;13.05;82.53
34034;BME280;63481;52.588;22.472;2023-05-25T00:09:17;100407.13;;;13.05;82.33
34034;BME280;63481;52.588;22.472;2023-05-25T00:09:49;100407.88;;;13.06;82.32
34034;BME280;63481;52.588;22.472;2023-05-25T00:10:21;100411.69;;;13.02;82.20
34034;BME280;63481;52.588;22.472;2023-05-25T00:10:53;100408.19;;;12.96;82.05
34034;BME280;63481;52.588;22.472;2023-05-25T00:11:25;100411.11;;;12.95;82.10
34034;BME280;63481;52.588;22.472;2023-05-25T00:11:57;100410.19;;;12.87;82.52
34034;BME280;63481;52.588;22.472;2023-05-25T00:12:30;100412.64;;;12.83;82.76
34034;BME280;63481;52.588;22.472;2023-05-25T00:13:02;100412.56;;;12.83;83.06
34034;BME280;63481;52.588;22.472;2023-05-25T00:13:34;100415.65;;;12.84;82.92
34034;BME280;63481;52.588;22.472;2023-05-25T00:14:06;100412.39;;;12.85;82.81
34034;BME280;63481;52.588;22.472;2023-05-25T00:14:41;100414.09;;;12.85;82.77
34034;BME280;63481;52.588;22.472;2023-05-25T00:15:13;100414.17;;;12.85;82.63
34034;BME280;63481;52.588;22.472;2023-05-25T00:15:45;100412.81;;;12.84;82.49
34034;BME280;63481;52.588;22.472;2023-05-25T00:16:17;100416.77;;;12.83;82.35
34034;BME280;63481;52.588;22.472;2023-05-25T00:16:49;100413.65;;;12.77;83.06
34034;BME280;63481;52.588;22.472;2023-05-25T00:17:22;100414.63;;;12.70;83.48
34034;BME280;63481;52.588;22.472;2023-05-25T00:17:54;100413.90;;;12.63;83.94
34034;BME280;63481;52.588;22.472;2023-05-25T00:18:26;100416.18;;;12.60;83.92
34034;BME280;63481;52.588;22.472;2023-05-25T00:18:58;100413.34;;;12.60;84.08
34034;BME280;63481;52.588;22.472;2023-05-25T00:19:35;100413.20;;;12.64;83.67
34034;BME280;63481;52.588;22.472;2023-05-25T00:20:07;100414.01;;;12.65;83.71
34034;BME280;63481;52.588;22.472;2023-05-25T00:20:39;100414.34;;;12.66;83.74
34034;BME280;63481;52.588;22.472;2023-05-25T00:21:11;100416.65;;;12.70;83.34
34034;BME280;63481;52.588;22.472;2023-05-25T00:21:44;100415.38;;;12.69;83.23
34034;BME280;63481;52.588;22.472;2023-05-25T00:22:19;100412.89;;;12.66;82.88
34034;BME280;63481;52.588;22.472;2023-05-25T00:22:51;100411.91;;;12.64;83.13
34034;BME280;63481;52.588;22.472;2023-05-25T00:23:26;100412.30;;;12.62;83.24
34034;BME280;63481;52.588;22.472;2023-05-25T00:23:59;100410.67;;;12.58;82.98
34034;BME280;63481;52.588;22.472;2023-05-25T00:24:31;100414.52;;;12.54;83.22
34034;BME280;63481;52.588;22.472;2023-05-25T00:25:04;100416.62;;;12.55;83.39
34034;BME280;63481;52.588;22.472;2023-05-25T00:25:36;100418.71;;;12.55;83.40
34034;BME280;63481;52.588;22.472;2023-05-25T00:26:08;100414.02;;;12.57;83.54
34034;BME280;63481;52.588;22.472;2023-05-25T00:26:41;100415.66;;;12.58;83.40
34034;BME280;63481;52.588;22.472;2023-05-25T00:27:13;100414.49;;;12.60;83.49
34034;BME280;63481;52.588;22.472;2023-05-25T00:27:45;100416.41;;;12.63;83.37
34034;BME280;63481;52.588;22.472;2023-05-25T00:28:17;100417.14;;;12.63;83.38
34034;BME280;63481;52.588;22.472;2023-05-25T00:28:49;100416.86;;;12.62;83.63
34034;BME280;63481;52.588;22.472;2023-05-25T00:29:21;100416.37;;;12.63;83.64
34034;BME280;63481;52.588;22.472;2023-05-25T00:29:53;100419.95;;;12.65;83.84
34034;BME280;63481;52.588;22.472;2023-05-25T00:30:25;100417.77;;;12.67;84.17
34034;BME280;63481;52.588;22.472;2023-05-25T00:30:57;100418.02;;;12.66;84.34
34034;BME280;63481;52.588;22.472;2023-05-25T00:31:29;100420.98;;;12.63;84.31
34034;BME280;63481;52.588;22.472;2023-05-25T00:32:04;100421.17;;;12.55;83.99
34034;BME280;63481;52.588;22.472;2023-05-25T00:32:36;100423.37;;;12.48;84.85
34034;BME280;63481;52.588;22.472;2023-05-25T00:33:08;100422.37;;;12.43;85.14
34034;BME280;63481;52.588;22.472;2023-05-25T00:33:41;100422.13;;;12.40;85.85
34034;BME280;63481;52.588;22.472;2023-05-25T00:34:13;100423.35;;;12.39;86.27
34034;BME280;63481;52.588;22.472;2023-05-25T00:34:45;100424.04;;;12.38;86.48
34034;BME280;63481;52.588;22.472;2023-05-25T00:35:17;100423.05;;;12.38;86.69
34034;BME280;63481;52.588;22.472;2023-05-25T00:35:50;100419.42;;;12.40;86.84
34034;BME280;63481;52.588;22.472;2023-05-25T00:36:24;100421.55;;;12.41;87.04
34034;BME280;63481;52.588;22.472;2023-05-25T00:36:56;100421.63;;;12.42;87.44
34034;BME280;63481;52.588;22.472;2023-05-25T00:37:28;100421.50;;;12.44;87.65
34034;BME280;63481;52.588;22.472;2023-05-25T00:38:00;100422.33;;;12.45;88.16
34034;BME280;63481;52.588;22.472;2023-05-25T00:38:32;100422.77;;;12.47;88.11
34034;BME280;63481;52.588;22.472;2023-05-25T00:39:04;100421.94;;;12.45;88.23
34034;BME280;63481;52.588;22.472;2023-05-25T00:39:36;100420.96;;;12.43;88.46
34034;BME280;63481;52.588;22.472;2023-05-25T00:40:09;100423.68;;;12.44;88.99
34034;BME280;63481;52.588;22.472;2023-05-25T00:40:45;100425.19;;;12.47;89.11
34034;BME280;63481;52.588;22.472;2023-05-25T00:41:17;100422.03;;;12.51;89.19
34034;BME280;63481;52.588;22.472;2023-05-25T00:41:49;100421.67;;;12.52;88.67
34034;BME280;63481;52.588;22.472;2023-05-25T00:42:22;100419.77;;;12.52;88.47
34034;BME280;63481;52.588;22.472;2023-05-25T00:42:54;100422.09;;;12.50;88.34
34034;BME280;63481;52.588;22.472;2023-05-25T00:43:26;100423.00;;;12.49;88.05
34034;BME280;63481;52.588;22.472;2023-05-25T00:43:58;100422.52;;;12.47;88.01
34034;BME280;63481;52.588;22.472;2023-05-25T00:44:30;100421.56;;;12.46;87.71
34034;BME280;63481;52.588;22.472;2023-05-25T00:45:03;100423.19;;;12.44;87.68
34034;BME280;63481;52.588;22.472;2023-05-25T00:45:35;100425.08;;;12.43;87.66
34034;BME280;63481;52.588;22.472;2023-05-25T00:46:08;100422.20;;;12.43;87.77
34034;BME280;63481;52.588;22.472;2023-05-25T00:46:47;100424.06;;;12.39;87.73
34034;BME280;63481;52.588;22.472;2023-05-25T00:47:20;100427.34;;;12.28;86.49
34034;BME280;63481;52.588;22.472;2023-05-25T00:47:52;100422.11;;;12.19;86.21
34034;BME280;63481;52.588;22.472;2023-05-25T00:48:25;100424.52;;;12.17;86.52
34034;BME280;63481;52.588;22.472;2023-05-25T00:48:59;100422.38;;;12.14;87.21
34034;BME280;63481;52.588;22.472;2023-05-25T00:49:33;100422.09;;;12.14;87.70
34034;BME280;63481;52.588;22.472;2023-05-25T00:50:08;100420.58;;;12.15;88.27
34034;BME280;63481;52.588;22.472;2023-05-25T00:50:42;100424.42;;;12.18;89.34
34034;BME280;63481;52.588;22.472;2023-05-25T00:51:15;100426.67;;;12.20;89.70
34034;BME280;63481;52.588;22.472;2023-05-25T00:51:47;100422.11;;;12.21;90.16
34034;BME280;63481;52.588;22.472;2023-05-25T00:52:19;100421.73;;;12.23;90.46
34034;BME280;63481;52.588;22.472;2023-05-25T00:52:51;100423.50;;;12.23;90.54
34034;BME280;63481;52.588;22.472;2023-05-25T00:53:23;100421.59;;;12.23;90.61
34034;BME280;63481;52.588;22.472;2023-05-25T00:53:56;100422.25;;;12.24;90.76
34034;BME280;63481;52.588;22.472;2023-05-25T00:54:28;100423.35;;;12.26;90.71
34034;BME280;63481;52.588;22.472;2023-05-25T00:55:01;100421.74;;;12.26;90.74
34034;BME280;63481;52.588;22.472;2023-05-25T00:55:43;100423.39;;;12.27;90.78
34034;BME280;63481;52.588;22.472;2023-05-25T00:56:21;100418.45;;;12.30;90.61
34034;BME280;63481;52.588;22.472;2023-05-25T00:57:06;100418.19;;;12.31;90.74
34034;BME280;63481;52.588;22.472;2023-05-25T00:57:40;100419.02;;;12.29;90.48
34034;BME280;63481;52.588;22.472;2023-05-25T00:58:19;100417.79;;;12.29;89.96
34034;BME280;63481;52.588;22.472;2023-05-25T00:58:53;100420.37;;;12.31;90.04
34034;BME280;63481;52.588;22.472;2023-05-25T00:59:30;100418.36;;;12.33;89.82
34034;BME280;63481;52.588;22.472;2023-05-25T01:00:07;100419.58;;;12.33;89.34
34034;BME280;63481;52.588;22.472;2023-05-25T01:00:43;100417.17;;;12.37;89.06
34034;BME280;63481;52.588;22.472;2023-05-25T01:01:17;100420.24;;;12.39;88.87
34034;BME280;63481;52.588;22.472;2023-05-25T01:01:50;100418.16;;;12.37;88.55
34034;BME280;63481;52.588;22.472;2023-05-25T01:02:25;100416.33;;;12.33;88.76
34034;BME280;63481;52.588;22.472;2023-05-25T01:02:58;100418.55;;;12.33;88.34
34034;BME280;63481;52.588;22.472;2023-05-25T01:03:34;100414.45;;;12.31;88.57
34034;BME280;63481;52.588;22.472;2023-05-25T01:04:09;100416.38;;;12.33;88.61
34034;BME280;63481;52.588;22.472;2023-05-25T01:04:50;100418.89;;;12.33;88.79
34034;BME280;63481;52.588;22.472;2023-05-25T01:05:24;100421.52;;;12.30;88.77
34034;BME280;63481;52.588;22.472;2023-05-25T01:06:00;100419.56;;;12.28;88.97
34034;BME280;63481;52.588;22.472;2023-05-25T01:06:35;100423.46;;;12.29;88.69
34034;BME280;63481;52.588;22.472;2023-05-25T01:07:09;100424.09;;;12.30;88.71
34034;BME280;63481;52.588;22.472;2023-05-25T01:07:43;100419.71;;;12.29;88.55
34034;BME280;63481;52.588;22.472;2023-05-25T01:08:18;100421.69;;;12.31;88.48
34034;BME280;63481;52.588;22.472;2023-05-25T01:08:57;100424.60;;;12.33;88.59
34034;BME280;63481;52.588;22.472;2023-05-25T01:09:34;100420.16;;;12.32;88.33
34034;BME280;63481;52.588;22.472;2023-05-25T01:10:10;100423.08;;;12.32;88.13
34034;BME280;63481;52.588;22.472;2023-05-25T01:10:48;100422.30;;;12.31;88.54
34034;BME280;63481;52.588;22.472;2023-05-25T01:11:23;100423.05;;;12.31;88.46
34034;BME280;63481;52.588;22.472;2023-05-25T01:11:57;100422.30;;;12.30;88.69
34034;BME280;63481;52.588;22.472;2023-05-25T01:12:35;100418.23;;;12.32;88.61
34034;BME280;63481;52.588;22.472;2023-05-25T01:13:08;100419.52;;;12.33;88.82
34034;BME280;63481;52.588;22.472;2023-05-25T01:13:42;100421.38;;;12.34;88.62
34034;BME280;63481;52.588;22.472;2023-05-25T01:14:18;100420.48;;;12.34;88.50
34034;BME280;63481;52.588;22.472;2023-05-25T01:14:52;100420.73;;;12.35;88.23
34034;BME280;63481;52.588;22.472;2023-05-25T01:15:25;100421.14;;;12.35;88.30
34034;BME280;63481;52.588;22.472;2023-05-25T01:15:59;100419.85;;;12.36;88.24
34034;BME280;63481;52.588;22.472;2023-05-25T01:16:31;100420.21;;;12.37;88.18
34034;BME280;63481;52.588;22.472;2023-05-25T01:17:03;100418.53;;;12.38;88.25
34034;BME280;63481;52.588;22.472;2023-05-25T01:17:37;100419.52;;;12.38;88.18
34034;BME280;63481;52.588;22.472;2023-05-25T01:18:13;100421.39;;;12.36;88.00
34034;BME280;63481;52.588;22.472;2023-05-25T01:18:45;100419.20;;;12.34;87.95
34034;BME280;63481;52.588;22.472;2023-05-25T01:19:18;100419.33;;;12.34;87.85
34034;BME280;63481;52.588;22.472;2023-05-25T01:19:50;100415.79;;;12.36;88.21
34034;BME280;63481;52.588;22.472;2023-05-25T01:20:25;100421.25;;;12.36;88.28
34034;BME280;63481;52.588;22.472;2023-05-25T01:21:50;100420.83;;;12.38;88.21
34034;BME280;63481;52.588;22.472;2023-05-25T01:22:29;100421.36;;;12.38;88.45
34034;BME280;63481;52.588;22.472;2023-05-25T01:23:10;100424.63;;;12.37;88.35
34034;BME280;63481;52.588;22.472;2023-05-25T01:24:05;100421.67;;;12.34;88.18
34034;BME280;63481;52.588;22.472;2023-05-25T01:24:43;100425.48;;;12.30;88.45
34034;BME280;63481;52.588;22.472;2023-05-25T01:25:24;100424.29;;;12.29;88.58
34034;BME280;63481;52.588;22.472;2023-05-25T01:26:00;100424.21;;;12.26;88.96
34034;BME280;63481;52.588;22.472;2023-05-25T01:26:47;100424.44;;;12.25;89.15
34034;BME280;63481;52.588;22.472;2023-05-25T01:28:42;100421.39;;;12.24;88.78
34034;BME280;63481;52.588;22.472;2023-05-25T01:29:18;100423.35;;;12.19;88.22
34034;BME280;63481;52.588;22.472;2023-05-25T01:29:52;100421.55;;;12.15;87.80
34034;BME280;63481;52.588;22.472;2023-05-25T01:30:27;100421.20;;;12.11;87.56
34034;BME280;63481;52.588;22.472;2023-05-25T01:31:01;100422.33;;;12.06;88.18
34034;BME280;63481;52.588;22.472;2023-05-25T01:31:34;100425.71;;;12.02;88.34
34034;BME280;63481;52.588;22.472;2023-05-25T01:32:07;100425.95;;;11.94;88.58
34034;BME280;63481;52.588;22.472;2023-05-25T01:32:41;100426.05;;;11.90;89.38
34034;BME280;63481;52.588;22.472;2023-05-25T01:33:15;100425.75;;;11.92;89.25
34034;BME280;63481;52.588;22.472;2023-05-25T01:33:49;100426.45;;;11.95;89.36
34034;BME280;63481;52.588;22.472;2023-05-25T01:34:23;100427.48;;;12.02;89.29
34034;BME280;63481;52.588;22.472;2023-05-25T01:34:56;100424.71;;;12.07;89.08
34034;BME280;63481;52.588;22.472;2023-05-25T01:35:30;100425.66;;;12.09;88.91
34034;BME280;63481;52.588;22.472;2023-05-25T01:36:03;100425.65;;;12.08;88.93
34034;BME280;63481;52.588;22.472;2023-05-25T01:36:35;100423.32;;;12.05;89.05
34034;BME280;63481;52.588;22.472;2023-05-25T01:37:11;100428.02;;;12.06;89.26
34034;BME280;63481;52.588;22.472;2023-05-25T01:37:48;100425.34;;;12.06;89.08
34034;BME280;63481;52.588;22.472;2023-05-25T01:38:20;100428.55;;;12.05;89.07
34034;BME280;63481;52.588;22.472;2023-05-25T01:38:52;100425.55;;;12.03;89.14
34034;BME280;63481;52.588;22.472;2023-05-25T01:39:24;100426.05;;;12.04;88.99
34034;BME280;63481;52.588;22.472;2023-05-25T01:39:56;100425.59;;;12.03;89.05
34034;BME280;63481;52.588;22.472;2023-05-25T01:40:28;100424.44;;;12.03;88.81
34034;BME280;63481;52.588;22.472;2023-05-25T01:41:00;100423.41;;;12.03;88.75
34034;BME280;63481;52.588;22.472;2023-05-25T01:41:32;100425.91;;;12.03;88.66
34034;BME280;63481;52.588;22.472;2023-05-25T01:42:04;100426.08;;;12.03;88.97
34034;BME280;63481;52.588;22.472;2023-05-25T01:42:39;100427.97;;;12.02;89.05
34034;BME280;63481;52.588;22.472;2023-05-25T01:43:12;100425.88;;;12.03;89.44
34034;BME280;63481;52.588;22.472;2023-05-25T01:43:44;100425.34;;;12.03;89.96
34034;BME280;63481;52.588;22.472;2023-05-25T01:44:17;100422.05;;;12.05;90.49
34034;BME280;63481;52.588;22.472;2023-05-25T01:44:49;100421.59;;;12.05;90.77
34034;BME280;63481;52.588;22.472;2023-05-25T01:45:22;100425.26;;;12.03;91.27
34034;BME280;63481;52.588;22.472;2023-05-25T01:46:05;100425.75;;;12.03;91.27
34034;BME280;63481;52.588;22.472;2023-05-25T01:46:40;100426.58;;;12.02;91.69
34034;BME280;63481;52.588;22.472;2023-05-25T01:47:20;100426.46;;;12.03;91.82
34034;BME280;63481;52.588;22.472;2023-05-25T01:48:07;100426.17;;;12.01;91.79
34034;BME280;63481;52.588;22.472;2023-05-25T01:49:51;100422.09;;;12.15;91.29
34034;BME280;63481;52.588;22.472;2023-05-25T01:50:42;100423.75;;;12.22;90.64
34034;BME280;63481;52.588;22.472;2023-05-25T01:51:30;100419.79;;;12.24;90.31
34034;BME280;63481;52.588;22.472;2023-05-25T01:53:29;100420.04;;;12.03;90.94
34034;BME280;63481;52.588;22.472;2023-05-25T01:54:18;100417.43;;;12.05;91.05
34034;BME280;63481;52.588;22.472;2023-05-25T01:54:53;100419.33;;;12.08;90.91
34034;BME280;63481;52.588;22.472;2023-05-25T01:55:29;100420.96;;;12.08;91.00
34034;BME280;63481;52.588;22.472;2023-05-25T01:56:06;100421.14;;;12.06;91.04
34034;BME280;63481;52.588;22.472;2023-05-25T01:56:39;100418.10;;;12.05;91.15
34034;BME280;63481;52.588;22.472;2023-05-25T01:57:16;100420.67;;;12.10;91.44
34034;BME280;63481;52.588;22.472;2023-05-25T01:57:55;100421.04;;;12.11;91.17
34034;BME280;63481;52.588;22.472;2023-05-25T01:58:40;100423.72;;;12.09;91.24
34034;BME280;63481;52.588;22.472;2023-05-25T01:59:15;100419.98;;;12.06;91.08
34034;BME280;63481;52.588;22.472;2023-05-25T01:59:51;100419.34;;;12.04;91.10
34034;BME280;63481;52.588;22.472;2023-05-25T02:00:26;100419.91;;;12.03;91.16
34034;BME280;63481;52.588;22.472;2023-05-25T02:01:02;100414.96;;;12.05;91.24
34034;BME280;63481;52.588;22.472;2023-05-25T02:01:34;100417.84;;;12.07;91.44
34034;BME280;63481;52.588;22.472;2023-05-25T02:02:08;100420.36;;;12.06;91.76
34034;BME280;63481;52.588;22.472;2023-05-25T02:02:41;100419.16;;;12.07;91.86
34034;BME280;63481;52.588;22.472;2023-05-25T02:03:14;100421.33;;;12.10;91.85
34034;BME280;63481;52.588;22.472;2023-05-25T02:03:47;100421.56;;;12.12;92.01
34034;BME280;63481;52.588;22.472;2023-05-25T02:04:20;100421.50;;;12.17;91.85
34034;BME280;63481;52.588;22.472;2023-05-25T02:04:53;100424.86;;;12.19;92.03
34034;BME280;63481;52.588;22.472;2023-05-25T02:05:27;100422.84;;;12.22;91.99
34034;BME280;63481;52.588;22.472;2023-05-25T02:06:00;100423.97;;;12.17;91.24
34034;BME280;63481;52.588;22.472;2023-05-25T02:06:34;100425.64;;;12.10;90.70
34034;BME280;63481;52.588;22.472;2023-05-25T02:07:06;100423.38;;;12.02;90.49
34034;BME280;63481;52.588;22.472;2023-05-25T02:07:38;100425.73;;;11.95;90.26
34034;BME280;63481;52.588;22.472;2023-05-25T02:08:10;100424.85;;;11.90;90.28
34034;BME280;63481;52.588;22.472;2023-05-25T02:08:42;100425.33;;;11.80;89.73
34034;BME280;63481;52.588;22.472;2023-05-25T02:09:16;100426.28;;;11.78;89.69
34034;BME280;63481;52.588;22.472;2023-05-25T02:09:49;100426.00;;;11.75;89.54
34034;BME280;63481;52.588;22.472;2023-05-25T02:10:22;100425.30;;;11.78;89.30
34034;BME280;63481;52.588;22.472;2023-05-25T02:10:54;100428.59;;;11.76;90.38
34034;BME280;63481;52.588;22.472;2023-05-25T02:11:26;100431.97;;;11.72;91.30
34034;BME280;63481;52.588;22.472;2023-05-25T02:11:58;100429.14;;;11.73;92.00
34034;BME280;63481;52.588;22.472;2023-05-25T02:12:31;100429.21;;;11.74;92.76
34034;BME280;63481;52.588;22.472;2023-05-25T02:13:03;100427.64;;;11.76;92.45
34034;BME280;63481;52.588;22.472;2023-05-25T02:13:36;100429.54;;;11.70;91.95
34034;BME280;63481;52.588;22.472;2023-05-25T02:14:08;100426.86;;;11.68;91.32
34034;BME280;63481;52.588;22.472;2023-05-25T02:14:41;100429.04;;;11.63;91.14
34034;BME280;63481;52.588;22.472;2023-05-25T02:15:14;100428.77;;;11.59;91.07
34034;BME280;63481;52.588;22.472;2023-05-25T02:15:46;100429.63;;;11.56;91.09
34034;BME280;63481;52.588;22.472;2023-05-25T02:16:18;100430.03;;;11.55;91.47
34034;BME280;63481;52.588;22.472;2023-05-25T02:16:50;100428.55;;;11.57;91.58
34034;BME280;63481;52.588;22.472;2023-05-25T02:17:22;100430.54;;;11.59;91.95
34034;BME280;63481;52.588;22.472;2023-05-25T02:17:58;100428.59;;;11.62;91.96
34034;BME280;63481;52.588;22.472;2023-05-25T02:18:33;100431.39;;;11.62;92.32
34034;BME280;63481;52.588;22.472;2023-05-25T02:19:05;100429.41;;;11.67;92.37
34034;BME280;63481;52.588;22.472;2023-05-25T02:19:37;100430.81;;;11.74;92.61
34034;BME280;63481;52.588;22.472;2023-05-25T02:20:10;100433.94;;;11.80;92.92
34034;BME280;63481;52.588;22.472;2023-05-25T02:20:43;100431.66;;;11.83;92.80
34034;BME280;63481;52.588;22.472;2023-05-25T02:21:15;100433.05;;;11.83;92.54
34034;BME280;63481;52.588;22.472;2023-05-25T02:21:47;100433.58;;;11.86;92.63
34034;BME280;63481;52.588;22.472;2023-05-25T02:22:22;100431.27;;;11.87;92.57
34034;BME280;63481;52.588;22.472;2023-05-25T02:22:54;100433.09;;;11.86;92.70
34034;BME280;63481;52.588;22.472;2023-05-25T02:23:26;100433.50;;;11.84;92.56
34034;BME280;63481;52.588;22.472;2023-05-25T02:23:59;100434.73;;;11.80;92.44
34034;BME280;63481;52.588;22.472;2023-05-25T02:24:31;100432.16;;;11.76;92.61
34034;BME280;63481;52.588;22.472;2023-05-25T02:25:06;100434.89;;;11.73;92.79
34034;BME280;63481;52.588;22.472;2023-05-25T02:25:39;100433.53;;;11.71;92.86
34034;BME280;63481;52.588;22.472;2023-05-25T02:26:13;100434.60;;;11.72;92.91
34034;BME280;63481;52.588;22.472;2023-05-25T02:26:45;100434.06;;;11.74;93.18
34034;BME280;63481;52.588;22.472;2023-05-25T02:27:17;100434.48;;;11.73;93.49
34034;BME280;63481;52.588;22.472;2023-05-25T02:27:49;100436.65;;;11.76;94.13
34034;BME280;63481;52.588;22.472;2023-05-25T02:28:21;100437.75;;;11.78;94.82
34034;BME280;63481;52.588;22.472;2023-05-25T02:28:53;100437.22;;;11.82;95.39
34034;BME280;63481;52.588;22.472;2023-05-25T02:29:26;100440.78;;;11.86;95.90
34034;BME280;63481;52.588;22.472;2023-05-25T02:29:59;100440.87;;;11.95;96.18
34034;BME280;63481;52.588;22.472;2023-05-25T02:30:31;100444.35;;;12.01;96.48
34034;BME280;63481;52.588;22.472;2023-05-25T02:31:03;100445.70;;;12.02;96.39
34034;BME280;63481;52.588;22.472;2023-05-25T02:31:36;100443.45;;;12.00;96.27
34034;BME280;63481;52.588;22.472;2023-05-25T02:32:08;100445.05;;;12.04;96.65
34034;BME280;63481;52.588;22.472;2023-05-25T02:32:40;100444.23;;;12.07;96.65
34034;BME280;63481;52.588;22.472;2023-05-25T02:33:12;100443.93;;;12.07;96.11
34034;BME280;63481;52.588;22.472;2023-05-25T02:33:44;100444.20;;;12.07;95.69
34034;BME280;63481;52.588;22.472;2023-05-25T02:34:16;100442.29;;;12.05;94.91
34034;BME280;63481;52.588;22.472;2023-05-25T02:34:48;100444.85;;;11.98;94.22
34034;BME280;63481;52.588;22.472;2023-05-25T02:35:20;100445.40;;;11.95;93.39
34034;BME280;63481;52.588;22.472;2023-05-25T02:35:52;100447.30;;;11.90;92.93
34034;BME280;63481;52.588;22.472;2023-05-25T02:36:24;100445.86;;;11.89;92.84
34034;BME280;63481;52.588;22.472;2023-05-25T02:36:56;100442.54;;;11.88;92.92
34034;BME280;63481;52.588;22.472;2023-05-25T02:37:29;100444.27;;;11.87;92.66
34034;BME280;63481;52.588;22.472;2023-05-25T02:38:01;100442.33;;;11.86;92.54
34034;BME280;63481;52.588;22.472;2023-05-25T02:38:33;100445.51;;;11.81;91.95
34034;BME280;63481;52.588;22.472;2023-05-25T02:39:05;100441.81;;;11.81;91.71
34034;BME280;63481;52.588;22.472;2023-05-25T02:39:37;100447.38;;;11.80;91.61
34034;BME280;63481;52.588;22.472;2023-05-25T02:40:10;100443.14;;;11.80;91.77
34034;BME280;63481;52.588;22.472;2023-05-25T02:40:44;100447.08;;;11.81;91.52
34034;BME280;63481;52.588;22.472;2023-05-25T02:41:18;100444.82;;;11.84;91.89
34034;BME280;63481;52.588;22.472;2023-05-25T02:41:50;100448.71;;;11.86;92.59
34034;BME280;63481;52.588;22.472;2023-05-25T02:42:24;100450.40;;;11.89;93.32
34034;BME280;63481;52.588;22.472;2023-05-25T02:42:56;100449.61;;;11.90;93.62
34034;BME280;63481;52.588;22.472;2023-05-25T02:43:28;100451.56;;;11.94;93.80
34034;BME280;63481;52.588;22.472;2023-05-25T02:44:00;100452.09;;;11.97;93.74
34034;BME280;63481;52.588;22.472;2023-05-25T02:44:32;100453.05;;;11.98;94.06
34034;BME280;63481;52.588;22.472;2023-05-25T02:45:07;100451.34;;;12.00;94.05
34034;BME280;63481;52.588;22.472;2023-05-25T02:45:41;100450.61;;;12.01;94.02
34034;BME280;63481;52.588;22.472;2023-05-25T02:46:13;100456.92;;;12.06;94.10
34034;BME280;63481;52.588;22.472;2023-05-25T02:46:45;100453.66;;;12.09;94.72
34034;BME280;63481;52.588;22.472;2023-05-25T02:47:17;100456.08;;;12.12;95.29
34034;BME280;63481;52.588;22.472;2023-05-25T02:47:49;100457.38;;;12.16;95.92
34034;BME280;63481;52.588;22.472;2023-05-25T02:48:22;100455.95;;;12.24;96.15
34034;BME280;63481;52.588;22.472;2023-05-25T02:48:54;100454.66;;;12.27;96.07
34034;BME280;63481;52.588;22.472;2023-05-25T02:49:26;100453.92;;;12.27;96.07
34034;BME280;63481;52.588;22.472;2023-05-25T02:49:58;100453.39;;;12.34;95.90
34034;BME280;63481;52.588;22.472;2023-05-25T02:50:30;100452.08;;;12.40;95.54
34034;BME280;63481;52.588;22.472;2023-05-25T02:51:03;100451.69;;;12.40;95.23
34034;BME280;63481;52.588;22.472;2023-05-25T02:51:35;100450.45;;;12.40;94.78
34034;BME280;63481;52.588;22.472;2023-05-25T02:52:07;100452.84;;;12.38;94.96
34034;BME280;63481;52.588;22.472;2023-05-25T02:52:39;100453.71;;;12.37;95.32
34034;BME280;63481;52.588;22.472;2023-05-25T02:53:11;100453.72;;;12.35;95.72
34034;BME280;63481;52.588;22.472;2023-05-25T02:53:43;100454.61;;;12.36;95.96
34034;BME280;63481;52.588;22.472;2023-05-25T02:54:15;100454.83;;;12.37;96.46
34034;BME280;63481;52.588;22.472;2023-05-25T02:54:47;100455.11;;;12.44;96.34
34034;BME280;63481;52.588;22.472;2023-05-25T02:55:24;100454.15;;;12.49;96.34
34034;BME280;63481;52.588;22.472;2023-05-25T02:55:57;100453.59;;;12.52;96.23
34034;BME280;63481;52.588;22.472;2023-05-25T02:56:31;100455.17;;;12.56;96.18
34034;BME280;63481;52.588;22.472;2023-05-25T02:57:03;100455.02;;;12.57;96.32
34034;BME280;63481;52.588;22.472;2023-05-25T02:57:35;100454.15;;;12.57;96.53
34034;BME280;63481;52.588;22.472;2023-05-25T02:58:11;100453.70;;;12.57;96.39
34034;BME280;63481;52.588;22.472;2023-05-25T02:58:59;100450.98;;;12.58;96.83
34034;BME280;63481;52.588;22.472;2023-05-25T02:59:36;100452.77;;;12.59;96.80